CSD6 weather

Baie-Comeau Seaplane Base
Baie-Comeau, Quebec, Canada

Public forecast

Using degrees Celsius for public forecast. Weather courtesy of forecast.io.

Closest aviation weather report (METAR) to Baie-Comeau Seaplane Base

Closest report is Baie Comeau Airport, 6.9 nm (12.7 km) SE. Retrieved 2020/05/30 08:00 UTC (36 minutes ago):

CYBC 300800Z AUTO 19003KT 9SM OVC020 13/12 A2944 RMK SLP973 DENSITY ALT 300FT

Closest aviation forecast (TAF) to Baie-Comeau Seaplane Base

Closest forecast is Baie Comeau Airport, 6.9 nm (12.7 km) SE. Retrieved 2020/05/30 08:00 UTC (36 minutes ago):

TAF CYBC 300730Z 3008/3020 20005KT P6SM -SHRA SCT010 OVC030 TEMPO 3008/3010 3SM -SHRA BR BKN010 OVC030 FM301000 26010KT 4SM -RA BR BKN008 OVC015 TEMPO 3010/3013 6SM -RA BR SCT008 OVC015 FM301300 32012G22KT P6SM -SHRA OVC020 FM301600 30015KT P6SM BKN030 RMK FCST BASED ON AUTO OBS NXT FCST BY 301400Z